Airfield :
LOGIN :

Register | Disclaimer

   EN    FR    IT 

 










Legend :    VFR   Marginal VFR   IFR   Intensive IFR   Very Intensive IFR
Visi :
Ceiling :
>= 8 km
>= 3000ft
5 to 8 km
1000 to 3000 ft
1500m to 5 km
500 to 1000 ft
800 to 1500m
200 to 500 ft
< 800m
< 200 ft
Symbols :   Thunderstorms  Fog  Heavy snow  Heavy precipitations  Wind > 20 kt
SIGMETs :     Misc.  Thunderstorms  Icing  Turbulence  Mountain Waves  Volcanic Ashes






- Airport Elevation : 17 ft
- IATA code : GRQ


EHGG - Groningen Eelde

CURRENT METAR :
  • 200155Z AUTO 00000KT 0250 R23/0275N FZFG BKN000 M02/M03 Q1019

EXPIRED METARs :
  • 200125Z AUTO 18002KT 0350 R23/0550N FZFG NCD M03/M03 Q1019
  • 200055Z AUTO 19002KT 0300 R23/0400N FZFG NCD M02/M02 Q1018
  • 200025Z AUTO 19003KT 0400 R23/0550U FZFG NCD M02/M02 Q1018
  • 192355Z AUTO 22001KT 0300 R23/0375N FZFG NCD M02/M02 Q1019
  • 192325Z AUTO 22003KT 0600 R23/0800N FZFG NCD M01/M01 Q1018

TAF COR TAF EHGG
Valid from the 20 at 00:00 until the 21 at 06:00 UTC


192327Z 2000/2106 21004KT 0400 FZFG NSC
TEMPO 2000/2003 0200
BECMG 2003/2006 0200 OVC000
BECMG 2010/2013 1200 BR BKN001
PROB40 2012/2018 3000 BKN003



MET'MAP, your aeronautical weather chart ! - Copyright ORBIFLY December 2007 - Disclaimer

ORBIFLY MET'MAP TEAM :

Programming & Development : Alexandra Zaïnal
Concept & Development : Baudouin d'Aumeries
Co-Development & Prog : Marc-Olivier Méhu
Technical & hardware support : Manuel Goepfert

Contact : metmap@orbifly.com




SOURCES & CREDITS :

   NOAA